sensor_id;sensor_type;location;lat;lon;timestamp;temperature;humidity
25482;DHT22;13395;50.752;4.268;2023-08-06T00:01:51;16.70;99.90
25482;DHT22;13395;50.752;4.268;2023-08-06T00:04:16;16.60;99.90
25482;DHT22;13395;50.752;4.268;2023-08-06T00:06:42;16.70;99.90
25482;DHT22;13395;50.752;4.268;2023-08-06T00:09:08;16.70;99.90
25482;DHT22;13395;50.752;4.268;2023-08-06T00:11:34;16.70;99.90
25482;DHT22;13395;50.752;4.268;2023-08-06T00:13:59;16.70;99.90
25482;DHT22;13395;50.752;4.268;2023-08-06T00:16:25;16.70;99.90
25482;DHT22;13395;50.752;4.268;2023-08-06T00:18:51;16.60;99.90
25482;DHT22;13395;50.752;4.268;2023-08-06T00:21:19;16.70;99.90
25482;DHT22;13395;50.752;4.268;2023-08-06T00:23:45;16.70;99.90
25482;DHT22;13395;50.752;4.268;2023-08-06T00:26:10;16.60;99.90
25482;DHT22;13395;50.752;4.268;2023-08-06T00:28:36;16.70;99.90
25482;DHT22;13395;50.752;4.268;2023-08-06T00:31:01;16.70;99.90
25482;DHT22;13395;50.752;4.268;2023-08-06T00:33:27;16.70;99.90
25482;DHT22;13395;50.752;4.268;2023-08-06T00:35:53;16.70;99.90
25482;DHT22;13395;50.752;4.268;2023-08-06T00:38:19;16.70;99.90
25482;DHT22;13395;50.752;4.268;2023-08-06T00:40:45;16.70;99.90
25482;DHT22;13395;50.752;4.268;2023-08-06T00:43:11;16.80;99.90
25482;DHT22;13395;50.752;4.268;2023-08-06T00:45:37;16.90;99.90
25482;DHT22;13395;50.752;4.268;2023-08-06T00:48:05;16.80;99.90
25482;DHT22;13395;50.752;4.268;2023-08-06T00:50:31;16.80;99.90
25482;DHT22;13395;50.752;4.268;2023-08-06T00:52:57;16.80;99.90
25482;DHT22;13395;50.752;4.268;2023-08-06T00:55:22;16.80;99.90
25482;DHT22;13395;50.752;4.268;2023-08-06T00:57:48;16.70;99.90
25482;DHT22;13395;50.752;4.268;2023-08-06T01:00:15;16.70;99.90
25482;DHT22;13395;50.752;4.268;2023-08-06T01:02:41;16.70;99.90
25482;DHT22;13395;50.752;4.268;2023-08-06T01:05:07;16.70;99.90
25482;DHT22;13395;50.752;4.268;2023-08-06T01:15:58;16.60;99.90
25482;DHT22;13395;50.752;4.268;2023-08-06T01:18:25;16.50;99.90
25482;DHT22;13395;50.752;4.268;2023-08-06T01:20:51;16.60;99.90
25482;DHT22;13395;50.752;4.268;2023-08-06T01:23:17;16.60;99.90
25482;DHT22;13395;50.752;4.268;2023-08-06T01:28:22;16.60;99.90
25482;DHT22;13395;50.752;4.268;2023-08-06T01:30:50;16.60;99.90
25482;DHT22;13395;50.752;4.268;2023-08-06T01:33:19;16.50;99.90
25482;DHT22;13395;50.752;4.268;2023-08-06T01:35:48;16.60;99.90
25482;DHT22;13395;50.752;4.268;2023-08-06T01:38:15;16.50;99.90
25482;DHT22;13395;50.752;4.268;2023-08-06T01:40:40;16.40;99.90
25482;DHT22;13395;50.752;4.268;2023-08-06T01:43:06;16.40;99.90
25482;DHT22;13395;50.752;4.268;2023-08-06T01:45:32;16.40;99.90
25482;DHT22;13395;50.752;4.268;2023-08-06T01:47:57;16.50;99.90
25482;DHT22;13395;50.752;4.268;2023-08-06T01:50:23;16.30;99.90
25482;DHT22;13395;50.752;4.268;2023-08-06T01:52:48;16.40;99.90
25482;DHT22;13395;50.752;4.268;2023-08-06T01:55:14;16.50;99.90
25482;DHT22;13395;50.752;4.268;2023-08-06T01:57:39;16.50;99.90
25482;DHT22;13395;50.752;4.268;2023-08-06T02:00:05;16.40;99.90
25482;DHT22;13395;50.752;4.268;2023-08-06T02:02:31;16.30;99.90
25482;DHT22;13395;50.752;4.268;2023-08-06T02:05:01;16.30;99.90
25482;DHT22;13395;50.752;4.268;2023-08-06T02:07:26;16.20;99.90
25482;DHT22;13395;50.752;4.268;2023-08-06T02:09:52;16.10;99.90
25482;DHT22;13395;50.752;4.268;2023-08-06T02:12:17;16.10;99.90
25482;DHT22;13395;50.752;4.268;2023-08-06T02:14:43;16.10;99.90
25482;DHT22;13395;50.752;4.268;2023-08-06T02:17:08;16.10;99.90
25482;DHT22;13395;50.752;4.268;2023-08-06T02:19:34;16.10;99.90
25482;DHT22;13395;50.752;4.268;2023-08-06T02:22:00;16.20;99.90
25482;DHT22;13395;50.752;4.268;2023-08-06T02:24:25;16.30;99.90
25482;DHT22;13395;50.752;4.268;2023-08-06T02:26:51;16.20;99.90
25482;DHT22;13395;50.752;4.268;2023-08-06T02:29:20;16.10;99.90
25482;DHT22;13395;50.752;4.268;2023-08-06T02:31:46;16.10;99.90
25482;DHT22;13395;50.752;4.268;2023-08-06T02:34:11;16.10;99.90
25482;DHT22;13395;50.752;4.268;2023-08-06T02:36:37;16.10;99.90
25482;DHT22;13395;50.752;4.268;2023-08-06T02:39:03;16.10;99.90
25482;DHT22;13395;50.752;4.268;2023-08-06T02:41:28;16.10;99.90
25482;DHT22;13395;50.752;4.268;2023-08-06T02:43:54;16.00;99.90
25482;DHT22;13395;50.752;4.268;2023-08-06T02:46:19;16.00;99.90
25482;DHT22;13395;50.752;4.268;2023-08-06T02:48:45;16.20;99.90
25482;DHT22;13395;50.752;4.268;2023-08-06T02:51:10;16.10;99.90
25482;DHT22;13395;50.752;4.268;2023-08-06T02:53:36;16.10;99.90
25482;DHT22;13395;50.752;4.268;2023-08-06T02:56:02;16.20;99.90
25482;DHT22;13395;50.752;4.268;2023-08-06T02:58:28;16.10;99.90
25482;DHT22;13395;50.752;4.268;2023-08-06T03:01:00;16.10;99.90
25482;DHT22;13395;50.752;4.268;2023-08-06T03:03:28;16.20;99.90
25482;DHT22;13395;50.752;4.268;2023-08-06T03:05:54;16.10;99.90
25482;DHT22;13395;50.752;4.268;2023-08-06T03:08:19;16.10;99.90
25482;DHT22;13395;50.752;4.268;2023-08-06T03:10:49;16.10;99.90
25482;DHT22;13395;50.752;4.268;2023-08-06T03:13:16;16.20;99.90
25482;DHT22;13395;50.752;4.268;2023-08-06T03:15:41;16.30;99.90
25482;DHT22;13395;50.752;4.268;2023-08-06T03:18:07;16.30;99.90
25482;DHT22;13395;50.752;4.268;2023-08-06T03:20:32;16.20;99.90
25482;DHT22;13395;50.752;4.268;2023-08-06T03:22:58;16.20;99.90
25482;DHT22;13395;50.752;4.268;2023-08-06T03:25:24;16.10;99.90
25482;DHT22;13395;50.752;4.268;2023-08-06T03:27:49;16.10;99.90
25482;DHT22;13395;50.752;4.268;2023-08-06T03:30:15;16.00;99.90
25482;DHT22;13395;50.752;4.268;2023-08-06T03:32:41;16.00;99.90
25482;DHT22;13395;50.752;4.268;2023-08-06T03:35:06;15.90;99.90
25482;DHT22;13395;50.752;4.268;2023-08-06T03:37:32;15.80;99.90
25482;DHT22;13395;50.752;4.268;2023-08-06T03:39:58;15.80;99.90
25482;DHT22;13395;50.752;4.268;2023-08-06T03:42:23;15.80;99.90
25482;DHT22;13395;50.752;4.268;2023-08-06T03:44:49;15.80;99.90
25482;DHT22;13395;50.752;4.268;2023-08-06T03:47:14;15.80;99.90
25482;DHT22;13395;50.752;4.268;2023-08-06T03:49:40;15.50;99.90
25482;DHT22;13395;50.752;4.268;2023-08-06T03:52:06;15.50;99.90
25482;DHT22;13395;50.752;4.268;2023-08-06T03:54:31;15.40;99.90
25482;DHT22;13395;50.752;4.268;2023-08-06T03:56:57;15.30;99.90
25482;DHT22;13395;50.752;4.268;2023-08-06T03:59:23;15.30;99.90
25482;DHT22;13395;50.752;4.268;2023-08-06T04:01:48;15.20;99.90
25482;DHT22;13395;50.752;4.268;2023-08-06T04:04:14;15.10;99.90
25482;DHT22;13395;50.752;4.268;2023-08-06T04:06:39;15.00;99.90
25482;DHT22;13395;50.752;4.268;2023-08-06T04:09:05;15.00;99.90
25482;DHT22;13395;50.752;4.268;2023-08-06T04:11:31;15.10;99.90
25482;DHT22;13395;50.752;4.268;2023-08-06T04:13:56;15.10;99.90
25482;DHT22;13395;50.752;4.268;2023-08-06T04:16:22;15.00;99.90
25482;DHT22;13395;50.752;4.268;2023-08-06T04:18:47;14.90;99.90
25482;DHT22;13395;50.752;4.268;2023-08-06T04:21:13;15.10;99.90
25482;DHT22;13395;50.752;4.268;2023-08-06T04:23:38;14.90;99.90
25482;DHT22;13395;50.752;4.268;2023-08-06T04:26:04;15.00;99.90
25482;DHT22;13395;50.752;4.268;2023-08-06T04:28:30;14.90;99.90
25482;DHT22;13395;50.752;4.268;2023-08-06T04:30:55;15.00;99.90
25482;DHT22;13395;50.752;4.268;2023-08-06T04:33:21;15.00;99.90
25482;DHT22;13395;50.752;4.268;2023-08-06T04:35:47;14.90;99.90
25482;DHT22;13395;50.752;4.268;2023-08-06T04:38:12;14.90;99.90
25482;DHT22;13395;50.752;4.268;2023-08-06T04:40:38;14.90;99.90
25482;DHT22;13395;50.752;4.268;2023-08-06T04:43:03;15.00;99.90
25482;DHT22;13395;50.752;4.268;2023-08-06T04:45:29;15.00;99.90
25482;DHT22;13395;50.752;4.268;2023-08-06T04:47:55;15.00;99.90
25482;DHT22;13395;50.752;4.268;2023-08-06T04:50:20;14.90;99.90
25482;DHT22;13395;50.752;4.268;2023-08-06T04:52:46;14.90;99.90
25482;DHT22;13395;50.752;4.268;2023-08-06T04:55:11;14.90;99.90
25482;DHT22;13395;50.752;4.268;2023-08-06T04:57:37;14.80;99.90
25482;DHT22;13395;50.752;4.268;2023-08-06T05:00:03;14.90;99.90
25482;DHT22;13395;50.752;4.268;2023-08-06T05:02:30;14.70;99.90
25482;DHT22;13395;50.752;4.268;2023-08-06T05:04:58;14.80;99.90
25482;DHT22;13395;50.752;4.268;2023-08-06T05:07:23;14.80;99.90
25482;DHT22;13395;50.752;4.268;2023-08-06T05:09:49;14.90;99.90
25482;DHT22;13395;50.752;4.268;2023-08-06T05:12:14;14.90;99.90
25482;DHT22;13395;50.752;4.268;2023-08-06T05:14:40;14.90;99.90
25482;DHT22;13395;50.752;4.268;2023-08-06T05:17:05;14.90;99.90
25482;DHT22;13395;50.752;4.268;2023-08-06T05:19:31;15.00;99.90
25482;DHT22;13395;50.752;4.268;2023-08-06T05:21:57;15.00;99.90
25482;DHT22;13395;50.752;4.268;2023-08-06T05:24:23;15.20;99.90
25482;DHT22;13395;50.752;4.268;2023-08-06T05:26:48;15.10;99.90
25482;DHT22;13395;50.752;4.268;2023-08-06T05:29:15;15.10;99.90
25482;DHT22;13395;50.752;4.268;2023-08-06T05:31:41;15.10;99.90
25482;DHT22;13395;50.752;4.268;2023-08-06T05:34:07;15.10;99.90
25482;DHT22;13395;50.752;4.268;2023-08-06T05:36:33;15.30;99.90
25482;DHT22;13395;50.752;4.268;2023-08-06T05:38:58;15.20;99.90
25482;DHT22;13395;50.752;4.268;2023-08-06T05:41:24;15.10;99.90
25482;DHT22;13395;50.752;4.268;2023-08-06T05:43:50;15.10;99.90
25482;DHT22;13395;50.752;4.268;2023-08-06T05:46:15;15.00;99.90
25482;DHT22;13395;50.752;4.268;2023-08-06T05:48:41;15.10;99.90
25482;DHT22;13395;50.752;4.268;2023-08-06T05:51:06;15.10;99.90
25482;DHT22;13395;50.752;4.268;2023-08-06T05:53:33;15.10;99.90
25482;DHT22;13395;50.752;4.268;2023-08-06T05:55:58;15.10;99.90
25482;DHT22;13395;50.752;4.268;2023-08-06T05:58:24;15.20;99.90
25482;DHT22;13395;50.752;4.268;2023-08-06T06:00:51;15.10;99.90
25482;DHT22;13395;50.752;4.268;2023-08-06T06:03:17;15.30;99.90
25482;DHT22;13395;50.752;4.268;2023-08-06T06:05:43;15.20;99.90
25482;DHT22;13395;50.752;4.268;2023-08-06T06:08:08;15.20;99.90
25482;DHT22;13395;50.752;4.268;2023-08-06T06:10:35;15.30;99.90
25482;DHT22;13395;50.752;4.268;2023-08-06T06:13:00;15.30;99.90
25482;DHT22;13395;50.752;4.268;2023-08-06T06:15:26;15.40;99.90
25482;DHT22;13395;50.752;4.268;2023-08-06T06:17:51;15.30;99.90
25482;DHT22;13395;50.752;4.268;2023-08-06T06:20:17;15.50;99.90
25482;DHT22;13395;50.752;4.268;2023-08-06T06:22:42;15.60;99.90
25482;DHT22;13395;50.752;4.268;2023-08-06T06:25:08;15.60;99.90
25482;DHT22;13395;50.752;4.268;2023-08-06T06:27:35;15.60;99.90
25482;DHT22;13395;50.752;4.268;2023-08-06T06:30:01;15.70;99.90
25482;DHT22;13395;50.752;4.268;2023-08-06T06:32:27;15.60;99.90
25482;DHT22;13395;50.752;4.268;2023-08-06T06:34:53;15.50;99.90
25482;DHT22;13395;50.752;4.268;2023-08-06T06:37:19;15.60;99.90
25482;DHT22;13395;50.752;4.268;2023-08-06T06:39:44;15.40;99.90
25482;DHT22;13395;50.752;4.268;2023-08-06T06:42:10;15.30;99.90
25482;DHT22;13395;50.752;4.268;2023-08-06T06:44:37;15.30;99.90
25482;DHT22;13395;50.752;4.268;2023-08-06T06:47:03;15.30;99.90
25482;DHT22;13395;50.752;4.268;2023-08-06T06:49:29;15.40;99.90
25482;DHT22;13395;50.752;4.268;2023-08-06T06:51:55;15.50;99.90
25482;DHT22;13395;50.752;4.268;2023-08-06T06:54:20;15.40;99.90
25482;DHT22;13395;50.752;4.268;2023-08-06T06:56:46;15.40;99.90
25482;DHT22;13395;50.752;4.268;2023-08-06T06:59:11;15.50;99.90
25482;DHT22;13395;50.752;4.268;2023-08-06T07:01:37;15.40;99.90
25482;DHT22;13395;50.752;4.268;2023-08-06T07:04:02;15.30;99.90
25482;DHT22;13395;50.752;4.268;2023-08-06T07:06:30;15.40;99.90
25482;DHT22;13395;50.752;4.268;2023-08-06T07:08:56;15.60;99.90
25482;DHT22;13395;50.752;4.268;2023-08-06T07:11:22;15.70;99.90
25482;DHT22;13395;50.752;4.268;2023-08-06T07:13:47;15.80;99.90
25482;DHT22;13395;50.752;4.268;2023-08-06T07:16:13;15.90;99.90
25482;DHT22;13395;50.752;4.268;2023-08-06T07:18:38;15.70;99.90
25482;DHT22;13395;50.752;4.268;2023-08-06T07:21:04;15.60;99.90
25482;DHT22;13395;50.752;4.268;2023-08-06T07:23:29;15.60;99.90
25482;DHT22;13395;50.752;4.268;2023-08-06T07:25:55;15.40;99.90
25482;DHT22;13395;50.752;4.268;2023-08-06T07:28:21;15.50;99.90
25482;DHT22;13395;50.752;4.268;2023-08-06T07:30:47;15.30;99.90
25482;DHT22;13395;50.752;4.268;2023-08-06T07:33:13;15.10;99.90
25482;DHT22;13395;50.752;4.268;2023-08-06T07:35:39;15.10;99.90
25482;DHT22;13395;50.752;4.268;2023-08-06T07:38:04;15.40;99.90
25482;DHT22;13395;50.752;4.268;2023-08-06T07:40:30;15.50;99.90
25482;DHT22;13395;50.752;4.268;2023-08-06T07:42:56;15.80;99.90
25482;DHT22;13395;50.752;4.268;2023-08-06T07:45:21;15.90;99.90
25482;DHT22;13395;50.752;4.268;2023-08-06T07:47:47;16.10;99.90
25482;DHT22;13395;50.752;4.268;2023-08-06T07:50:13;16.30;99.90
25482;DHT22;13395;50.752;4.268;2023-08-06T07:52:39;16.20;99.90
25482;DHT22;13395;50.752;4.268;2023-08-06T07:55:04;16.10;99.90
25482;DHT22;13395;50.752;4.268;2023-08-06T07:57:33;16.10;99.90
25482;DHT22;13395;50.752;4.268;2023-08-06T08:00:00;16.00;99.90
25482;DHT22;13395;50.752;4.268;2023-08-06T08:02:25;16.00;99.90
25482;DHT22;13395;50.752;4.268;2023-08-06T08:04:51;16.20;99.90
25482;DHT22;13395;50.752;4.268;2023-08-06T08:07:17;16.10;99.90
25482;DHT22;13395;50.752;4.268;2023-08-06T08:09:43;16.30;99.90
25482;DHT22;13395;50.752;4.268;2023-08-06T08:12:08;16.30;99.90
25482;DHT22;13395;50.752;4.268;2023-08-06T08:14:34;16.00;99.90
25482;DHT22;13395;50.752;4.268;2023-08-06T08:17:04;16.00;99.90
25482;DHT22;13395;50.752;4.268;2023-08-06T08:19:31;15.90;99.90
25482;DHT22;13395;50.752;4.268;2023-08-06T08:21:57;15.90;99.90
25482;DHT22;13395;50.752;4.268;2023-08-06T08:24:23;16.00;99.90
25482;DHT22;13395;50.752;4.268;2023-08-06T08:26:50;16.10;99.90
25482;DHT22;13395;50.752;4.268;2023-08-06T08:29:16;16.30;99.90
25482;DHT22;13395;50.752;4.268;2023-08-06T08:31:41;16.30;99.90
25482;DHT22;13395;50.752;4.268;2023-08-06T08:34:07;16.10;99.90
25482;DHT22;13395;50.752;4.268;2023-08-06T08:36:32;16.10;99.90
25482;DHT22;13395;50.752;4.268;2023-08-06T08:38:58;16.10;99.90
25482;DHT22;13395;50.752;4.268;2023-08-06T08:41:24;16.20;99.90
25482;DHT22;13395;50.752;4.268;2023-08-06T08:43:50;16.10;99.90
25482;DHT22;13395;50.752;4.268;2023-08-06T08:46:19;16.10;99.90
25482;DHT22;13395;50.752;4.268;2023-08-06T08:48:45;16.30;99.90
25482;DHT22;13395;50.752;4.268;2023-08-06T08:51:12;16.30;99.90
25482;DHT22;13395;50.752;4.268;2023-08-06T08:53:39;16.50;99.90
25482;DHT22;13395;50.752;4.268;2023-08-06T08:56:05;16.30;99.90
25482;DHT22;13395;50.752;4.268;2023-08-06T08:58:31;16.20;99.90
25482;DHT22;13395;50.752;4.268;2023-08-06T09:00:57;16.10;99.90
25482;DHT22;13395;50.752;4.268;2023-08-06T09:03:23;15.90;99.90
25482;DHT22;13395;50.752;4.268;2023-08-06T09:05:51;15.90;99.90
25482;DHT22;13395;50.752;4.268;2023-08-06T09:08:18;16.00;99.90
25482;DHT22;13395;50.752;4.268;2023-08-06T09:11:01;15.80;99.90
25482;DHT22;13395;50.752;4.268;2023-08-06T09:13:27;16.00;99.90
25482;DHT22;13395;50.752;4.268;2023-08-06T09:15:52;16.00;99.90
25482;DHT22;13395;50.752;4.268;2023-08-06T09:18:25;15.90;99.90
25482;DHT22;13395;50.752;4.268;2023-08-06T09:20:52;15.90;99.90
25482;DHT22;13395;50.752;4.268;2023-08-06T09:23:18;15.90;99.90
25482;DHT22;13395;50.752;4.268;2023-08-06T09:25:45;15.90;99.90
25482;DHT22;13395;50.752;4.268;2023-08-06T09:28:11;15.90;99.90
25482;DHT22;13395;50.752;4.268;2023-08-06T09:30:37;16.00;99.90
25482;DHT22;13395;50.752;4.268;2023-08-06T09:33:03;15.90;99.90
25482;DHT22;13395;50.752;4.268;2023-08-06T09:35:33;15.80;99.90
25482;DHT22;13395;50.752;4.268;2023-08-06T09:38:09;15.80;99.90
25482;DHT22;13395;50.752;4.268;2023-08-06T09:40:36;16.00;99.90
25482;DHT22;13395;50.752;4.268;2023-08-06T09:43:02;15.70;99.90
25482;DHT22;13395;50.752;4.268;2023-08-06T09:45:36;15.70;99.90
25482;DHT22;13395;50.752;4.268;2023-08-06T09:48:06;15.50;99.90
25482;DHT22;13395;50.752;4.268;2023-08-06T09:50:34;15.30;99.90
25482;DHT22;13395;50.752;4.268;2023-08-06T09:53:03;15.30;99.90
25482;DHT22;13395;50.752;4.268;2023-08-06T09:55:29;15.40;99.90
25482;DHT22;13395;50.752;4.268;2023-08-06T09:57:55;15.40;99.90
25482;DHT22;13395;50.752;4.268;2023-08-06T10:00:22;15.40;99.90
25482;DHT22;13395;50.752;4.268;2023-08-06T10:02:49;15.40;99.90
25482;DHT22;13395;50.752;4.268;2023-08-06T10:05:17;15.50;99.90
25482;DHT22;13395;50.752;4.268;2023-08-06T10:07:44;15.40;99.90
25482;DHT22;13395;50.752;4.268;2023-08-06T10:10:10;15.40;99.90
25482;DHT22;13395;50.752;4.268;2023-08-06T10:12:39;15.40;99.90
25482;DHT22;13395;50.752;4.268;2023-08-06T10:15:10;15.30;99.90
25482;DHT22;13395;50.752;4.268;2023-08-06T10:17:37;15.30;99.90
25482;DHT22;13395;50.752;4.268;2023-08-06T10:20:05;15.30;99.90
25482;DHT22;13395;50.752;4.268;2023-08-06T10:22:33;15.30;99.90
25482;DHT22;13395;50.752;4.268;2023-08-06T10:24:59;15.40;99.90
25482;DHT22;13395;50.752;4.268;2023-08-06T10:27:34;15.50;99.90
25482;DHT22;13395;50.752;4.268;2023-08-06T10:30:30;15.70;99.90
25482;DHT22;13395;50.752;4.268;2023-08-06T10:32:57;15.70;99.90
25482;DHT22;13395;50.752;4.268;2023-08-06T10:35:34;15.80;99.90
25482;DHT22;13395;50.752;4.268;2023-08-06T10:40:28;16.10;99.90
25482;DHT22;13395;50.752;4.268;2023-08-06T10:42:58;16.20;99.90
25482;DHT22;13395;50.752;4.268;2023-08-06T10:45:24;16.10;99.90
25482;DHT22;13395;50.752;4.268;2023-08-06T10:47:54;16.30;99.90
25482;DHT22;13395;50.752;4.268;2023-08-06T10:50:21;16.40;99.90
25482;DHT22;13395;50.752;4.268;2023-08-06T10:52:47;16.60;99.90
25482;DHT22;13395;50.752;4.268;2023-08-06T10:55:26;16.70;99.90
25482;DHT22;13395;50.752;4.268;2023-08-06T10:57:52;16.80;99.90
25482;DHT22;13395;50.752;4.268;2023-08-06T11:00:18;16.80;99.90
25482;DHT22;13395;50.752;4.268;2023-08-06T11:02:43;16.90;99.90
25482;DHT22;13395;50.752;4.268;2023-08-06T11:05:10;17.00;99.90
25482;DHT22;13395;50.752;4.268;2023-08-06T11:07:36;17.30;99.90
25482;DHT22;13395;50.752;4.268;2023-08-06T11:10:10;17.40;99.90
25482;DHT22;13395;50.752;4.268;2023-08-06T11:12:36;17.20;99.90
25482;DHT22;13395;50.752;4.268;2023-08-06T11:15:02;17.00;99.90
25482;DHT22;13395;50.752;4.268;2023-08-06T11:17:29;17.00;99.90
25482;DHT22;13395;50.752;4.268;2023-08-06T11:19:55;17.00;99.90
25482;DHT22;13395;50.752;4.268;2023-08-06T11:22:21;17.10;99.90
25482;DHT22;13395;50.752;4.268;2023-08-06T11:24:48;17.60;99.90
25482;DHT22;13395;50.752;4.268;2023-08-06T11:27:15;18.00;99.90
25482;DHT22;13395;50.752;4.268;2023-08-06T11:29:42;18.50;99.90
25482;DHT22;13395;50.752;4.268;2023-08-06T11:32:08;18.10;99.90
25482;DHT22;13395;50.752;4.268;2023-08-06T11:34:34;17.50;99.90
25482;DHT22;13395;50.752;4.268;2023-08-06T11:37:02;17.20;99.90
25482;DHT22;13395;50.752;4.268;2023-08-06T11:39:28;17.30;99.90
25482;DHT22;13395;50.752;4.268;2023-08-06T11:41:53;16.90;99.90
25482;DHT22;13395;50.752;4.268;2023-08-06T11:44:19;16.70;99.90
25482;DHT22;13395;50.752;4.268;2023-08-06T11:46:53;16.70;99.90
25482;DHT22;13395;50.752;4.268;2023-08-06T11:49:43;16.80;99.90
25482;DHT22;13395;50.752;4.268;2023-08-06T11:52:20;17.00;99.90
25482;DHT22;13395;50.752;4.268;2023-08-06T11:55:02;17.30;99.90
25482;DHT22;13395;50.752;4.268;2023-08-06T11:57:39;17.40;99.90
25482;DHT22;13395;50.752;4.268;2023-08-06T12:00:13;17.30;99.90
25482;DHT22;13395;50.752;4.268;2023-08-06T12:02:43;17.10;99.90
25482;DHT22;13395;50.752;4.268;2023-08-06T12:05:13;16.90;99.90
25482;DHT22;13395;50.752;4.268;2023-08-06T12:07:47;16.60;99.90
25482;DHT22;13395;50.752;4.268;2023-08-06T12:10:13;16.50;99.90
25482;DHT22;13395;50.752;4.268;2023-08-06T12:12:40;16.50;99.90
25482;DHT22;13395;50.752;4.268;2023-08-06T12:15:07;16.60;99.90
25482;DHT22;13395;50.752;4.268;2023-08-06T12:17:33;16.90;99.90
25482;DHT22;13395;50.752;4.268;2023-08-06T12:19:59;16.90;99.90
25482;DHT22;13395;50.752;4.268;2023-08-06T12:22:25;17.00;99.90
25482;DHT22;13395;50.752;4.268;2023-08-06T12:24:51;17.00;99.90
25482;DHT22;13395;50.752;4.268;2023-08-06T12:27:16;16.90;99.90
25482;DHT22;13395;50.752;4.268;2023-08-06T12:29:43;16.90;99.90
25482;DHT22;13395;50.752;4.268;2023-08-06T12:32:10;16.90;99.90
25482;DHT22;13395;50.752;4.268;2023-08-06T12:34:38;16.90;99.90
25482;DHT22;13395;50.752;4.268;2023-08-06T12:37:04;16.90;99.90
25482;DHT22;13395;50.752;4.268;2023-08-06T12:39:30;16.70;99.90
25482;DHT22;13395;50.752;4.268;2023-08-06T12:41:56;16.50;99.90
25482;DHT22;13395;50.752;4.268;2023-08-06T12:44:23;16.20;99.90
25482;DHT22;13395;50.752;4.268;2023-08-06T12:46:50;16.00;99.90
25482;DHT22;13395;50.752;4.268;2023-08-06T12:49:16;16.00;99.90
25482;DHT22;13395;50.752;4.268;2023-08-06T12:51:43;16.10;99.90
25482;DHT22;13395;50.752;4.268;2023-08-06T12:54:08;16.30;99.90
25482;DHT22;13395;50.752;4.268;2023-08-06T12:56:34;16.50;99.90
25482;DHT22;13395;50.752;4.268;2023-08-06T12:59:00;16.70;99.90
25482;DHT22;13395;50.752;4.268;2023-08-06T13:01:25;16.50;99.90
25482;DHT22;13395;50.752;4.268;2023-08-06T13:03:51;16.50;99.90
25482;DHT22;13395;50.752;4.268;2023-08-06T13:06:16;16.50;99.90
25482;DHT22;13395;50.752;4.268;2023-08-06T13:08:42;16.60;99.90
25482;DHT22;13395;50.752;4.268;2023-08-06T13:11:08;16.80;99.90
25482;DHT22;13395;50.752;4.268;2023-08-06T13:13:34;16.90;99.90
25482;DHT22;13395;50.752;4.268;2023-08-06T13:15:59;16.80;99.90
25482;DHT22;13395;50.752;4.268;2023-08-06T13:18:25;16.60;99.90
25482;DHT22;13395;50.752;4.268;2023-08-06T13:20:53;16.60;99.90
25482;DHT22;13395;50.752;4.268;2023-08-06T13:23:19;16.60;99.90
25482;DHT22;13395;50.752;4.268;2023-08-06T13:25:45;16.50;99.90
25482;DHT22;13395;50.752;4.268;2023-08-06T13:28:10;16.50;99.90
25482;DHT22;13395;50.752;4.268;2023-08-06T13:30:36;16.50;99.90
25482;DHT22;13395;50.752;4.268;2023-08-06T13:33:10;16.60;99.90
25482;DHT22;13395;50.752;4.268;2023-08-06T13:35:36;16.60;99.90
25482;DHT22;13395;50.752;4.268;2023-08-06T13:38:02;16.90;99.90
25482;DHT22;13395;50.752;4.268;2023-08-06T13:40:33;16.90;99.90
25482;DHT22;13395;50.752;4.268;2023-08-06T13:42:59;16.90;99.90
25482;DHT22;13395;50.752;4.268;2023-08-06T13:45:24;17.20;99.90
25482;DHT22;13395;50.752;4.268;2023-08-06T13:47:50;17.30;99.90
25482;DHT22;13395;50.752;4.268;2023-08-06T13:50:16;17.60;99.90
25482;DHT22;13395;50.752;4.268;2023-08-06T13:52:41;17.60;99.90
25482;DHT22;13395;50.752;4.268;2023-08-06T13:55:07;17.60;99.90
25482;DHT22;13395;50.752;4.268;2023-08-06T13:57:34;17.50;99.90
25482;DHT22;13395;50.752;4.268;2023-08-06T14:00:00;17.30;99.90
25482;DHT22;13395;50.752;4.268;2023-08-06T14:02:26;17.20;99.90
25482;DHT22;13395;50.752;4.268;2023-08-06T14:04:55;17.30;99.90
25482;DHT22;13395;50.752;4.268;2023-08-06T14:07:20;17.10;99.90
25482;DHT22;13395;50.752;4.268;2023-08-06T14:09:46;16.90;99.90
25482;DHT22;13395;50.752;4.268;2023-08-06T14:12:13;16.80;99.90
25482;DHT22;13395;50.752;4.268;2023-08-06T14:14:39;16.60;99.90
25482;DHT22;13395;50.752;4.268;2023-08-06T14:17:04;16.60;99.90
25482;DHT22;13395;50.752;4.268;2023-08-06T14:19:30;16.60;99.90
25482;DHT22;13395;50.752;4.268;2023-08-06T14:21:56;16.80;99.90
25482;DHT22;13395;50.752;4.268;2023-08-06T14:24:22;16.70;99.90
25482;DHT22;13395;50.752;4.268;2023-08-06T14:26:47;16.90;99.90
25482;DHT22;13395;50.752;4.268;2023-08-06T14:29:13;17.10;99.90
25482;DHT22;13395;50.752;4.268;2023-08-06T14:31:39;17.30;99.90
25482;DHT22;13395;50.752;4.268;2023-08-06T14:34:05;17.20;99.90
25482;DHT22;13395;50.752;4.268;2023-08-06T14:36:31;17.20;99.90
25482;DHT22;13395;50.752;4.268;2023-08-06T14:38:56;17.10;99.90
25482;DHT22;13395;50.752;4.268;2023-08-06T14:41:22;17.10;99.90
25482;DHT22;13395;50.752;4.268;2023-08-06T14:43:47;17.30;99.90
25482;DHT22;13395;50.752;4.268;2023-08-06T14:46:13;17.30;99.90
25482;DHT22;13395;50.752;4.268;2023-08-06T14:48:38;17.50;99.90
25482;DHT22;13395;50.752;4.268;2023-08-06T14:51:04;17.60;99.90
25482;DHT22;13395;50.752;4.268;2023-08-06T14:53:30;17.60;99.90
25482;DHT22;13395;50.752;4.268;2023-08-06T14:55:56;17.40;99.90
25482;DHT22;13395;50.752;4.268;2023-08-06T14:58:21;17.40;99.90
25482;DHT22;13395;50.752;4.268;2023-08-06T15:00:47;17.50;99.90
25482;DHT22;13395;50.752;4.268;2023-08-06T15:03:12;17.40;99.90
25482;DHT22;13395;50.752;4.268;2023-08-06T15:05:38;17.50;99.90
25482;DHT22;13395;50.752;4.268;2023-08-06T15:08:03;17.40;99.90
25482;DHT22;13395;50.752;4.268;2023-08-06T15:10:29;17.30;99.90
25482;DHT22;13395;50.752;4.268;2023-08-06T15:12:55;17.30;99.90
25482;DHT22;13395;50.752;4.268;2023-08-06T15:15:20;17.30;99.90
25482;DHT22;13395;50.752;4.268;2023-08-06T15:17:47;17.10;99.90
25482;DHT22;13395;50.752;4.268;2023-08-06T15:20:13;17.00;99.90
25482;DHT22;13395;50.752;4.268;2023-08-06T15:22:38;16.90;99.90
25482;DHT22;13395;50.752;4.268;2023-08-06T15:25:04;17.00;99.90
25482;DHT22;13395;50.752;4.268;2023-08-06T15:27:30;17.00;99.90
25482;DHT22;13395;50.752;4.268;2023-08-06T15:29:57;17.10;99.90
25482;DHT22;13395;50.752;4.268;2023-08-06T15:32:22;17.00;99.90
25482;DHT22;13395;50.752;4.268;2023-08-06T15:34:50;17.00;99.90
25482;DHT22;13395;50.752;4.268;2023-08-06T15:37:15;17.20;99.90
25482;DHT22;13395;50.752;4.268;2023-08-06T15:39:41;17.40;99.90